Little Rock Air Force Base
KLRF : now visible

Airfield :











YOU CAN JOIN US ON...

 
LOGIN :

Register | Disclaimer

   EN    FR    IT 

 









Legend :    VFR   Marginal VFR   IFR   Intensive IFR   Very Intensive IFR
Visi :
Ceiling :
>= 8 km
>= 3000ft
5 to 8 km
1000 to 3000 ft
1500m to 5 km
500 to 1000 ft
800 to 1500m
200 to 500 ft
< 800m
< 200 ft
Symbols :   Thunderstorms  Fog  Heavy snow  Heavy precipitations  Wind > 20 kt







- Airport Elevation : 311 ft


KLRF - Little Rock Air Force Base

CURRENT METAR :
  • 230856Z AUTO 00000KT 10SM SCT180 14/14 A3005 RMK AO2 SLP177 60000 T01410136 57006 $

EXPIRED METARs :
  • 230756Z AUTO 00000KT 10SM BKN180 14/13 A3005 RMK AO2 RAB10E17 SLP177 P0000 T01400132 $
  • 230717Z AUTO 00000KT 10SM BKN180 BKN210 15/13 A3006 RMK AO2 RAB10E17 SLP180 $
  • 230656Z AUTO 00000KT 10SM SCT210 15/13 A3005 RMK AO2 SLP177 T01460125 $

TAF TAF KLRF
Valid from the 23 at 07:00 until the 24 at 13:00 UTC


230700Z 2307/2413 21006KT 9999 SCT200 QNH3000INS
BECMG 2321/2322 22009KT 9999 BKN030 QNH3002INS
BECMG 2406/2407 VRB06KT 6000 BR BKN015 QNH2996INS
TEMPO 2409/2413 3200 BR BKN008 TX28/2320Z TN14/2310Z
KZME FIR / North America



MET'MAP, your aeronautical weather chart ! - Copyright ORBIFLY December 2007 - Disclaimer

ORBIFLY MET'MAP TEAM :

Programming & Development : Alexandra Zaïnal
Concept & Development : Baudouin d'Aumeries
Co-Development & Prog : Marc-Olivier Méhu
Technical & hardware support : Manuel Goepfert

Contact : metmap@orbifly.com




SOURCES & CREDITS :

   NOAA       Earth
Advisory